sensor_id;sensor_type;location;lat;lon;timestamp;temperature;humidity
18341;DHT22;9296;48.084;16.352;2022-08-01T08:39:50;32.00;92.20
18341;DHT22;9296;48.084;16.352;2022-08-01T08:52:10;30.60;99.00
18341;DHT22;9296;48.084;16.352;2022-08-01T08:54:38;31.50;98.60
18341;DHT22;9296;48.084;16.352;2022-08-01T08:57:07;31.30;96.50
18341;DHT22;9296;48.084;16.352;2022-08-01T09:11:54;30.90;96.40
18341;DHT22;9296;48.084;16.352;2022-08-01T09:14:22;32.50;93.50
18341;DHT22;9296;48.084;16.352;2022-08-01T09:25:24;32.50;92.20
18341;DHT22;9296;48.084;16.352;2022-08-01T09:28:03;32.60;92.60
18341;DHT22;9296;48.084;16.352;2022-08-01T09:30:37;33.00;94.10
18341;DHT22;9296;48.084;16.352;2022-08-01T09:33:04;33.10;92.60
18341;DHT22;9296;48.084;16.352;2022-08-01T09:35:33;33.00;92.50
18341;DHT22;9296;48.084;16.352;2022-08-01T09:38:12;32.60;90.70
18341;DHT22;9296;48.084;16.352;2022-08-01T09:40:50;32.50;91.50
18341;DHT22;9296;48.084;16.352;2022-08-01T09:43:20;32.20;90.70
18341;DHT22;9296;48.084;16.352;2022-08-01T09:45:48;32.00;91.50
18341;DHT22;9296;48.084;16.352;2022-08-01T09:48:16;31.70;91.50
18341;DHT22;9296;48.084;16.352;2022-08-01T09:50:46;32.10;92.60
18341;DHT22;9296;48.084;16.352;2022-08-01T09:53:50;32.40;90.50
18341;DHT22;9296;48.084;16.352;2022-08-01T09:56:19;32.20;91.30
18341;DHT22;9296;48.084;16.352;2022-08-01T09:58:55;32.20;90.90
18341;DHT22;9296;48.084;16.352;2022-08-01T10:01:22;32.30;91.50
18341;DHT22;9296;48.084;16.352;2022-08-01T10:04:05;32.40;89.80
18341;DHT22;9296;48.084;16.352;2022-08-01T10:06:32;32.90;93.50
18341;DHT22;9296;48.084;16.352;2022-08-01T10:12:23;32.90;91.10
18341;DHT22;9296;48.084;16.352;2022-08-01T10:14:51;33.20;88.60
18341;DHT22;9296;48.084;16.352;2022-08-01T10:17:20;33.60;90.70
18341;DHT22;9296;48.084;16.352;2022-08-01T10:19:51;33.50;86.20
18341;DHT22;9296;48.084;16.352;2022-08-01T10:22:58;33.10;87.40
18341;DHT22;9296;48.084;16.352;2022-08-01T10:25:27;32.30;88.50
18341;DHT22;9296;48.084;16.352;2022-08-01T10:27:57;32.10;90.60
18341;DHT22;9296;48.084;16.352;2022-08-01T10:30:26;32.30;92.10
18341;DHT22;9296;48.084;16.352;2022-08-01T10:32:54;32.50;89.80
18341;DHT22;9296;48.084;16.352;2022-08-01T10:35:22;32.80;89.90
18341;DHT22;9296;48.084;16.352;2022-08-01T10:37:49;32.80;90.10
18341;DHT22;9296;48.084;16.352;2022-08-01T10:40:22;32.80;90.10
18341;DHT22;9296;48.084;16.352;2022-08-01T10:42:49;33.00;88.50
18341;DHT22;9296;48.084;16.352;2022-08-01T10:45:18;32.80;89.80
18341;DHT22;9296;48.084;16.352;2022-08-01T10:47:53;32.80;88.20
18341;DHT22;9296;48.084;16.352;2022-08-01T10:50:31;33.00;89.00
18341;DHT22;9296;48.084;16.352;2022-08-01T10:53:13;32.90;86.60
18341;DHT22;9296;48.084;16.352;2022-08-01T10:55:58;33.00;86.00
18341;DHT22;9296;48.084;16.352;2022-08-01T10:58:27;33.00;87.90
18341;DHT22;9296;48.084;16.352;2022-08-01T11:01:22;32.60;85.40
18341;DHT22;9296;48.084;16.352;2022-08-01T11:03:58;32.10;88.00
18341;DHT22;9296;48.084;16.352;2022-08-01T11:06:28;32.10;89.00
18341;DHT22;9296;48.084;16.352;2022-08-01T11:12:37;32.50;88.80
18341;DHT22;9296;48.084;16.352;2022-08-01T11:15:23;33.00;90.30
18341;DHT22;9296;48.084;16.352;2022-08-01T11:17:55;33.00;85.50
18341;DHT22;9296;48.084;16.352;2022-08-01T11:20:23;33.40;85.40
18341;DHT22;9296;48.084;16.352;2022-08-01T11:23:24;33.60;87.90
18341;DHT22;9296;48.084;16.352;2022-08-01T11:26:12;33.40;84.70
18341;DHT22;9296;48.084;16.352;2022-08-01T11:28:40;33.40;86.10
18341;DHT22;9296;48.084;16.352;2022-08-01T11:31:27;33.60;86.90
18341;DHT22;9296;48.084;16.352;2022-08-01T11:33:56;33.60;83.70
18341;DHT22;9296;48.084;16.352;2022-08-01T11:36:23;33.70;82.40
18341;DHT22;9296;48.084;16.352;2022-08-01T11:42:18;33.60;82.00
18341;DHT22;9296;48.084;16.352;2022-08-01T11:44:50;33.70;78.80
18341;DHT22;9296;48.084;16.352;2022-08-01T11:47:17;33.90;81.50
18341;DHT22;9296;48.084;16.352;2022-08-01T11:49:48;33.80;79.50
18341;DHT22;9296;48.084;16.352;2022-08-01T11:52:26;33.60;79.90
18341;DHT22;9296;48.084;16.352;2022-08-01T11:54:54;33.30;78.30
18341;DHT22;9296;48.084;16.352;2022-08-01T11:57:23;33.10;79.60
18341;DHT22;9296;48.084;16.352;2022-08-01T11:59:53;32.90;78.70
18341;DHT22;9296;48.084;16.352;2022-08-01T12:02:22;32.90;78.60
18341;DHT22;9296;48.084;16.352;2022-08-01T12:04:57;32.50;78.40
18341;DHT22;9296;48.084;16.352;2022-08-01T12:07:37;32.20;78.90
18341;DHT22;9296;48.084;16.352;2022-08-01T12:10:09;32.00;78.40
18341;DHT22;9296;48.084;16.352;2022-08-01T12:12:37;31.90;81.40
18341;DHT22;9296;48.084;16.352;2022-08-01T12:15:06;31.80;82.30
